Time;durP1;ratioP1;P1;durP2;ratioP2;P2;SDS_P1;SDS_P2;PMS_P1;PMS_P2;Temp;Humidity;BMP_temperature;BMP_pressure;BME280_temperature;BME280_humidity;BME280_pressure;Samples;Min_cycle;Max_cycle;Signal;HPM_P1;HPM_P2
2021/12/11 00:00:14;;;;;;;;;;;;;;;3.14;100.00;100522.69;5018657;28;19917;-78
2021/12/11 00:02:40;;;;;;;;;;;;;;;3.14;100.00;100525.31;5018608;28;19920;-77
2021/12/11 00:05:05;;;;;;;;;;;;;;;3.15;100.00;100521.00;5019019;28;20280;-77
2021/12/11 00:07:34;;;;;;;;;;;;;;;3.03;100.00;100529.84;5036219;28;19920;-78
2021/12/11 00:10:06;;;;;;;;;;;;;;;3.12;100.00;100533.81;5030932;28;19947;-75
2021/12/11 00:12:37;;;;;;;;;;;;;;;3.13;100.00;100541.72;5038793;28;19963;-78
2021/12/11 00:15:07;;;;;;;;;;;;;;;3.15;100.00;100536.59;5038650;28;19921;-77
2021/12/11 00:17:35;;;;;;;;;;;;;;;3.17;100.00;100545.38;5038431;28;19921;-77
2021/12/11 00:20:04;;;;;;;;;;;;;;;3.19;100.00;100547.28;5023732;28;20004;-77
2021/12/11 00:22:30;;;;;;;;;;;;;;;3.19;100.00;100554.22;5026861;28;20264;-77
2021/12/11 00:25:05;;;;;;;;;;;;;;;3.13;100.00;100572.03;5020224;28;19916;-78
2021/12/11 00:27:34;;;;;;;;;;;;;;;3.13;100.00;100564.25;5029097;28;20356;-78
2021/12/11 00:30:00;;;;;;;;;;;;;;;3.13;100.00;100572.94;5037904;28;19916;-77
2021/12/11 00:32:27;;;;;;;;;;;;;;;3.11;100.00;100578.84;5028162;28;19923;-78
2021/12/11 00:34:54;;;;;;;;;;;;;;;3.13;100.00;100587.66;5020363;28;20424;-78
2021/12/11 00:37:22;;;;;;;;;;;;;;;3.17;100.00;100590.53;5036029;28;19971;-78
2021/12/11 00:39:51;;;;;;;;;;;;;;;3.19;100.00;100591.53;5027261;28;20269;-77
2021/12/11 00:42:17;;;;;;;;;;;;;;;3.21;100.00;100596.81;5018312;28;19924;-78
2021/12/11 00:44:42;;;;;;;;;;;;;;;3.22;100.00;100606.44;5017990;28;20592;-79
2021/12/11 00:47:13;;;;;;;;;;;;;;;3.22;100.00;100601.22;5027176;28;19912;-78
2021/12/11 00:49:59;;;;;;;;;;;;;;;3.23;100.00;100614.34;5028535;28;19917;-79
2021/12/11 00:52:29;;;;;;;;;;;;;;;3.25;100.00;100622.25;5024322;28;20307;-78
2021/12/11 00:54:55;;;;;;;;;;;;;;;3.21;100.00;100623.72;5025316;28;19917;-78
2021/12/11 00:57:23;;;;;;;;;;;;;;;3.20;100.00;100619.34;5017941;28;19923;-78
2021/12/11 00:59:57;;;;;;;;;;;;;;;3.22;100.00;100632.47;5027669;28;19917;-78
2021/12/11 01:02:23;;;;;;;;;;;;;;;3.22;100.00;100635.06;5031450;28;20242;-78
2021/12/11 01:04:48;;;;;;;;;;;;;;;3.24;100.00;100636.94;5017787;28;19924;-78
2021/12/11 01:07:30;;;;;;;;;;;;;;;3.26;100.00;100644.84;5028677;28;19925;-79
2021/12/11 01:09:59;;;;;;;;;;;;;;;3.29;100.00;100646.75;5027543;28;19916;-78
2021/12/11 01:12:38;;;;;;;;;;;;;;;3.29;100.00;100650.22;5055409;28;20260;-78
2021/12/11 01:15:09;;;;;;;;;;;;;;;3.30;100.00;100651.16;5024421;28;20688;-78
2021/12/11 01:17:43;;;;;;;;;;;;;;;3.31;100.00;100656.44;5038263;28;20015;-77
2021/12/11 01:20:34;;;;;;;;;;;;;;;3.30;100.00;100659.84;5034348;28;19966;-77
2021/12/11 01:23:00;;;;;;;;;;;;;;;3.29;100.00;100660.63;5034877;28;19917;-77
2021/12/11 01:25:27;;;;;;;;;;;;;;;3.30;100.00;100667.66;5015956;28;19917;-77
2021/12/11 01:27:55;;;;;;;;;;;;;;;3.27;100.00;100676.97;5044310;28;19927;-77
2021/12/11 01:30:33;;;;;;;;;;;;;;;3.27;100.00;100672.66;5029462;28;19940;-79
2021/12/11 01:32:58;;;;;;;;;;;;;;;3.27;100.00;100690.00;5022763;28;20345;-78
2021/12/11 01:35:24;;;;;;;;;;;;;;;3.27;100.00;100695.19;5037108;28;19952;-78
2021/12/11 01:38:20;;;;;;;;;;;;;;;3.26;100.00;100685.59;5036637;28;19923;-78
2021/12/11 01:40:47;;;;;;;;;;;;;;;3.21;100.00;100688.78;5027732;28;19917;-78
2021/12/11 01:43:15;;;;;;;;;;;;;;;3.22;100.00;100694.91;5015769;28;19921;-79
2021/12/11 01:45:42;;;;;;;;;;;;;;;3.23;100.00;100704.50;5013787;28;20357;-78
2021/12/11 01:48:09;;;;;;;;;;;;;;;3.26;100.00;100711.59;5003871;28;19913;-79
2021/12/11 01:50:36;;;;;;;;;;;;;;;3.28;100.00;100713.53;5005434;28;20338;-78
2021/12/11 01:53:08;;;;;;;;;;;;;;;3.25;100.00;100723.72;5000117;28;19933;-78
2021/12/11 01:55:39;;;;;;;;;;;;;;;3.20;100.00;100720.84;4993552;28;19913;-78
2021/12/11 01:58:07;;;;;;;;;;;;;;;3.17;100.00;100728.44;4993439;28;19917;-79
2021/12/11 02:00:38;;;;;;;;;;;;;;;3.13;100.00;100735.97;4997552;28;19975;-80
2021/12/11 02:03:06;;;;;;;;;;;;;;;3.12;100.00;100741.97;5012687;28;19963;-78
2021/12/11 02:05:34;;;;;;;;;;;;;;;3.10;100.00;100739.25;5013247;28;19923;-77
2021/12/11 02:08:04;;;;;;;;;;;;;;;3.05;100.00;100743.28;5013000;28;19919;-77
2021/12/11 02:10:33;;;;;;;;;;;;;;;3.01;100.00;100742.16;5012613;28;20305;-78
2021/12/11 02:12:59;;;;;;;;;;;;;;;3.01;100.00;100749.06;5000968;28;19921;-78
2021/12/11 02:15:31;;;;;;;;;;;;;;;2.96;100.00;100753.09;5011788;28;20354;-76
2021/12/11 02:18:10;;;;;;;;;;;;;;;2.96;100.00;100750.50;5012132;28;19924;-77
2021/12/11 02:20:38;;;;;;;;;;;;;;;2.91;100.00;100767.50;5011631;28;19917;-78
2021/12/11 02:23:04;;;;;;;;;;;;;;;2.88;100.00;100761.28;5012784;28;20012;-77
2021/12/11 02:25:32;;;;;;;;;;;;;;;2.85;100.00;100771.47;4996477;28;19953;-78
2021/12/11 02:28:01;;;;;;;;;;;;;;;2.87;100.00;100780.31;5008673;28;19921;-77
2021/12/11 02:30:30;;;;;;;;;;;;;;;2.93;100.00;100784.09;5001082;28;19948;-77
2021/12/11 02:33:02;;;;;;;;;;;;;;;2.95;100.00;100783.41;5001246;28;19984;-76
2021/12/11 02:35:47;;;;;;;;;;;;;;;2.98;100.00;100775.81;5012505;28;19948;-77
2021/12/11 02:38:20;;;;;;;;;;;;;;;3.00;100.00;100801.94;5007978;28;19921;-77
2021/12/11 02:40:57;;;;;;;;;;;;;;;3.05;100.00;100809.22;5001569;28;19925;-77
2021/12/11 02:43:27;;;;;;;;;;;;;;;3.05;100.00;100814.41;5016607;28;19921;-78
2021/12/11 02:46:25;;;;;;;;;;;;;;;3.09;100.00;100804.19;5019449;28;19936;-78
2021/12/11 02:48:55;;;;;;;;;;;;;;;3.10;100.00;100804.31;4999149;28;19913;-77
2021/12/11 02:51:28;;;;;;;;;;;;;;;3.08;100.00;100800.72;5032507;28;19971;-76
2021/12/11 02:53:59;;;;;;;;;;;;;;;3.03;100.00;100815.09;5031970;28;19924;-78
2021/12/11 02:56:27;;;;;;;;;;;;;;;2.99;100.00;100813.13;5034509;28;19915;-78
2021/12/11 02:59:02;;;;;;;;;;;;;;;2.95;100.00;100812.03;5031310;28;19928;-77
2021/12/11 03:01:30;;;;;;;;;;;;;;;2.92;100.00;100818.69;5031030;28;19948;-76
2021/12/11 03:04:05;;;;;;;;;;;;;;;2.87;100.00;100816.72;5036669;28;19947;-77
2021/12/11 03:06:38;;;;;;;;;;;;;;;2.84;100.00;100821.72;5028991;28;20400;-76
2021/12/11 03:09:04;;;;;;;;;;;;;;;2.76;100.00;100820.28;5016313;28;19917;-78
2021/12/11 03:11:30;;;;;;;;;;;;;;;2.69;100.00;100824.19;5032726;28;19923;-78
2021/12/11 03:13:56;;;;;;;;;;;;;;;2.64;100.00;100828.19;5029194;28;19921;-77
2021/12/11 03:16:27;;;;;;;;;;;;;;;2.60;100.00;100825.28;5021458;28;19924;-78
2021/12/11 03:18:54;;;;;;;;;;;;;;;2.58;100.00;100824.25;5015855;28;20016;-79
2021/12/11 03:21:20;;;;;;;;;;;;;;;2.60;100.00;100828.75;5016874;28;19925;-77
2021/12/11 03:23:45;;;;;;;;;;;;;;;2.61;100.00;100827.97;5028781;28;19944;-79
2021/12/11 03:26:10;;;;;;;;;;;;;;;2.60;100.00;100827.88;5016073;28;19968;-77
2021/12/11 03:28:37;;;;;;;;;;;;;;;2.65;100.00;100834.28;5015829;28;19957;-77
2021/12/11 03:31:03;;;;;;;;;;;;;;;2.73;100.00;100840.00;5026723;28;20443;-77
2021/12/11 03:33:31;;;;;;;;;;;;;;;2.79;100.00;100837.81;5026219;28;19921;-78
2021/12/11 03:35:56;;;;;;;;;;;;;;;2.84;100.00;100828.59;5013685;28;19921;-78
2021/12/11 03:38:24;;;;;;;;;;;;;;;2.88;100.00;100836.72;5015215;28;19928;-79
2021/12/11 03:40:50;;;;;;;;;;;;;;;2.90;100.00;100833.31;5024326;28;19916;-77
2021/12/11 03:43:17;;;;;;;;;;;;;;;2.90;100.00;100842.00;5017764;28;19924;-78
2021/12/11 03:45:43;;;;;;;;;;;;;;;2.92;100.00;100845.63;4996475;28;20346;-77
2021/12/11 03:48:12;;;;;;;;;;;;;;;2.93;100.00;100857.81;4995823;28;20280;-78
2021/12/11 03:50:38;;;;;;;;;;;;;;;2.98;100.00;100856.44;5003538;28;19917;-79
2021/12/11 03:53:04;;;;;;;;;;;;;;;2.96;100.00;100860.63;5002502;28;19972;-77
2021/12/11 03:55:33;;;;;;;;;;;;;;;2.91;100.00;100855.94;5004557;28;19921;-77
2021/12/11 03:58:00;;;;;;;;;;;;;;;2.95;100.00;100850.13;5015593;28;19921;-78
2021/12/11 04:00:39;;;;;;;;;;;;;;;2.95;100.00;100863.13;5015680;28;20357;-77
2021/12/11 04:03:06;;;;;;;;;;;;;;;2.95;100.00;100864.06;5013359;28;19918;-79
2021/12/11 04:05:33;;;;;;;;;;;;;;;2.95;100.00;100850.13;5015779;28;20349;-78
2021/12/11 04:07:59;;;;;;;;;;;;;;;2.98;100.00;100866.84;5010032;28;19925;-78
2021/12/11 04:10:27;;;;;;;;;;;;;;;3.03;100.00;100860.25;5014484;28;19917;-78
2021/12/11 04:12:53;;;;;;;;;;;;;;;3.07;100.00;100856.13;5014945;28;19921;-78
2021/12/11 04:15:18;;;;;;;;;;;;;;;3.07;100.00;100866.53;4997969;28;19925;-78
2021/12/11 04:17:45;;;;;;;;;;;;;;;3.10;100.00;100871.94;4998113;28;19990;-78
2021/12/11 04:20:14;;;;;;;;;;;;;;;3.11;100.00;100865.97;4998871;28;19918;-78
2021/12/11 04:22:39;;;;;;;;;;;;;;;3.10;100.00;100869.34;5006631;28;20019;-78
2021/12/11 04:25:06;;;;;;;;;;;;;;;3.15;100.00;100864.44;4995687;28;20366;-78
2021/12/11 04:27:32;;;;;;;;;;;;;;;3.12;100.00;100869.44;4995487;28;20326;-77
2021/12/11 04:29:58;;;;;;;;;;;;;;;3.07;100.00;100870.84;4996958;28;19964;-78
2021/12/11 04:32:25;;;;;;;;;;;;;;;3.01;100.00;100881.75;5002173;28;19918;-77
2021/12/11 04:34:52;;;;;;;;;;;;;;;2.93;100.00;100875.13;5009909;28;19921;-78
2021/12/11 04:37:21;;;;;;;;;;;;;;;2.93;100.00;100872.53;4998399;28;19918;-78
2021/12/11 04:39:53;;;;;;;;;;;;;;;2.96;100.00;100868.44;4994918;28;19917;-77
2021/12/11 04:42:31;;;;;;;;;;;;;;;3.04;100.00;100872.44;4997020;28;19925;-78
2021/12/11 04:44:57;;;;;;;;;;;;;;;3.06;100.00;100877.75;4994811;28;19960;-78
2021/12/11 04:47:36;;;;;;;;;;;;;;;3.08;100.00;100883.97;5003349;28;20310;-77
2021/12/11 04:50:07;;;;;;;;;;;;;;;3.15;100.00;100882.66;5015313;28;20208;-78
2021/12/11 04:52:33;;;;;;;;;;;;;;;3.17;100.00;100886.25;5005554;28;20540;-78
2021/12/11 05:00:41;;;;;;;;;;;;;;;3.21;100.00;100889.16;4996131;28;20263;-78
2021/12/11 05:11:50;;;;;;;;;;;;;;;3.22;100.00;100898.78;5015022;28;19924;-78
2021/12/11 05:14:17;;;;;;;;;;;;;;;3.31;100.00;100913.19;5011594;28;19920;-78
2021/12/11 05:16:42;;;;;;;;;;;;;;;3.36;100.00;100909.22;5003300;28;19957;-76
2021/12/11 05:19:08;;;;;;;;;;;;;;;3.36;100.00;100915.31;4993667;28;19964;-80
2021/12/11 05:21:34;;;;;;;;;;;;;;;3.36;100.00;100914.44;4994508;28;19924;-78
2021/12/11 05:23:59;;;;;;;;;;;;;;;3.38;100.00;100920.63;4994429;28;19918;-78
2021/12/11 05:26:25;;;;;;;;;;;;;;;3.35;100.00;100917.81;4979431;28;19921;-78
2021/12/11 05:28:50;;;;;;;;;;;;;;;3.33;100.00;100906.41;5009990;28;19921;-78
2021/12/11 05:31:18;;;;;;;;;;;;;;;3.34;100.00;100913.41;5013858;28;19963;-78
2021/12/11 05:33:44;;;;;;;;;;;;;;;3.31;100.00;100911.53;5013683;28;19925;-78
2021/12/11 05:36:11;;;;;;;;;;;;;;;3.29;100.00;100915.69;5013364;28;19922;-77
2021/12/11 05:38:39;;;;;;;;;;;;;;;3.35;100.00;100916.09;5008126;28;19925;-78
2021/12/11 05:41:06;;;;;;;;;;;;;;;3.39;100.00;100920.72;4995544;28;19964;-77
2021/12/11 05:43:32;;;;;;;;;;;;;;;3.42;100.00;100923.53;5016232;28;19928;-77
2021/12/11 05:45:58;;;;;;;;;;;;;;;3.48;100.00;100928.25;5015900;28;19921;-78
2021/12/11 05:48:29;;;;;;;;;;;;;;;3.43;100.00;100929.63;5036040;28;19962;-78
2021/12/11 05:50:56;;;;;;;;;;;;;;;3.36;100.00;100940.47;5035937;28;19917;-78
2021/12/11 05:53:23;;;;;;;;;;;;;;;3.47;100.00;100936.84;5036886;28;19936;-77
2021/12/11 05:55:50;;;;;;;;;;;;;;;3.52;100.00;100934.56;5029458;28;19917;-78
2021/12/11 05:58:35;;;;;;;;;;;;;;;3.69;100.00;100944.34;5016944;28;19916;-76
2021/12/11 06:01:01;;;;;;;;;;;;;;;3.94;100.00;100961.56;5024870;28;19917;-78
2021/12/11 06:03:26;;;;;;;;;;;;;;;4.10;100.00;100953.03;5018033;28;19921;-78
2021/12/11 06:05:51;;;;;;;;;;;;;;;4.26;100.00;100961.03;5026059;28;19927;-80
2021/12/11 06:08:18;;;;;;;;;;;;;;;4.29;100.00;100966.44;5036243;28;19917;-80
2021/12/11 06:10:45;;;;;;;;;;;;;;;4.36;100.00;100969.44;5019462;28;19916;-78
2021/12/11 06:13:10;;;;;;;;;;;;;;;4.48;100.00;100971.09;5036560;28;19943;-78
2021/12/11 06:15:36;;;;;;;;;;;;;;;4.60;100.00;100984.00;5016463;28;20341;-78
2021/12/11 06:18:02;;;;;;;;;;;;;;;4.68;100.00;100982.75;5016508;28;19944;-78
2021/12/11 06:20:29;;;;;;;;;;;;;;;4.72;100.00;100989.06;5016694;28;20007;-78
2021/12/11 06:22:55;;;;;;;;;;;;;;;4.66;100.00;100993.88;5041396;28;19913;-78
2021/12/11 06:25:22;;;;;;;;;;;;;;;4.67;100.00;101006.13;5016781;28;19924;-78
2021/12/11 06:27:49;;;;;;;;;;;;;;;4.68;100.00;101006.22;5016745;28;19952;-78
2021/12/11 06:30:15;;;;;;;;;;;;;;;4.63;100.00;101019.78;5015900;28;19917;-77
2021/12/11 06:32:41;;;;;;;;;;;;;;;4.70;100.00;101021.97;5021888;28;20269;-78
2021/12/11 06:35:09;;;;;;;;;;;;;;;4.74;100.00;101020.44;5022527;28;19913;-75
2021/12/11 06:37:40;;;;;;;;;;;;;;;4.73;100.00;101031.72;5035941;28;19917;-77
2021/12/11 06:40:07;;;;;;;;;;;;;;;4.70;100.00;101034.13;5034182;28;19916;-77
2021/12/11 06:42:34;;;;;;;;;;;;;;;4.68;100.00;101039.25;5016368;28;19967;-78
2021/12/11 06:44:59;;;;;;;;;;;;;;;4.70;100.00;101041.97;5012752;28;20338;-78
2021/12/11 06:47:26;;;;;;;;;;;;;;;4.77;100.00;101050.25;5013212;28;19920;-78
2021/12/11 06:49:52;;;;;;;;;;;;;;;4.84;100.00;101048.94;5010294;28;19922;-78
2021/12/11 06:52:18;;;;;;;;;;;;;;;4.80;100.00;101055.69;4996820;28;20018;-78
2021/12/11 06:54:44;;;;;;;;;;;;;;;4.81;100.00;101060.06;5013099;28;19917;-76
2021/12/11 06:57:10;;;;;;;;;;;;;;;4.73;100.00;101056.09;5012608;28;20258;-79
2021/12/11 06:59:36;;;;;;;;;;;;;;;4.65;100.00;101065.16;5013334;28;19917;-77
2021/12/11 07:02:02;;;;;;;;;;;;;;;4.65;100.00;101065.16;4998593;28;20400;-78
2021/12/11 07:04:29;;;;;;;;;;;;;;;4.55;100.00;101079.28;4994245;28;20355;-78
2021/12/11 07:06:55;;;;;;;;;;;;;;;4.52;100.00;101076.47;4997275;28;19957;-78
2021/12/11 07:09:26;;;;;;;;;;;;;;;4.56;100.00;101091.53;4993046;28;19952;-77
2021/12/11 07:11:52;;;;;;;;;;;;;;;4.52;100.00;101088.63;4995111;28;20366;-79
2021/12/11 07:14:18;;;;;;;;;;;;;;;4.49;100.00;101108.50;5003606;28;20008;-77
2021/12/11 07:16:45;;;;;;;;;;;;;;;4.32;100.00;101117.84;5011230;28;19917;-78
2021/12/11 07:19:14;;;;;;;;;;;;;;;4.27;100.00;101119.25;5012535;28;19921;-77
2021/12/11 07:21:42;;;;;;;;;;;;;;;4.25;100.00;101127.75;4976963;28;20408;-76
2021/12/11 07:24:08;;;;;;;;;;;;;;;4.22;100.00;101128.44;4993305;28;19918;-78
2021/12/11 07:26:36;;;;;;;;;;;;;;;4.19;100.00;101145.59;4997104;28;20004;-77
2021/12/11 07:29:07;;;;;;;;;;;;;;;4.13;100.00;101156.50;5010793;28;19918;-77
2021/12/11 07:31:33;;;;;;;;;;;;;;;4.14;100.00;101164.44;4992855;28;19929;-77
2021/12/11 07:33:59;;;;;;;;;;;;;;;4.16;100.00;101161.94;4992272;28;20251;-77
2021/12/11 07:36:25;;;;;;;;;;;;;;;4.18;100.00;101175.06;5002993;28;19991;-77
2021/12/11 07:38:54;;;;;;;;;;;;;;;4.15;100.00;101178.41;5000727;28;20350;-79
2021/12/11 07:41:20;;;;;;;;;;;;;;;4.15;100.00;101175.78;4997741;28;20011;-79
2021/12/11 07:43:46;;;;;;;;;;;;;;;4.19;100.00;101189.91;5019367;28;20392;-79
2021/12/11 07:46:15;;;;;;;;;;;;;;;4.26;100.00;101193.03;5019053;28;19917;-77
2021/12/11 07:48:43;;;;;;;;;;;;;;;4.30;100.00;101208.09;5037808;28;20541;-78
2021/12/11 07:51:09;;;;;;;;;;;;;;;4.35;100.00;101210.09;5038594;28;19943;-77
2021/12/11 07:53:34;;;;;;;;;;;;;;;4.34;100.00;101213.50;5032932;28;19917;-78
2021/12/11 07:56:00;;;;;;;;;;;;;;;4.28;100.00;101219.22;5016653;28;19917;-78
2021/12/11 07:58:29;;;;;;;;;;;;;;;4.22;100.00;101229.22;5033866;28;20352;-78
2021/12/11 08:00:55;;;;;;;;;;;;;;;4.25;100.00;101235.53;5035447;28;19916;-78
2021/12/11 08:03:20;;;;;;;;;;;;;;;4.24;100.00;101244.19;5022790;28;19924;-78
2021/12/11 08:05:48;;;;;;;;;;;;;;;4.28;100.00;101247.88;5022101;28;20305;-78
2021/12/11 08:08:15;;;;;;;;;;;;;;;4.21;100.00;101263.91;5024736;28;20371;-79
2021/12/11 08:10:42;;;;;;;;;;;;;;;4.19;100.00;101266.41;5035020;28;19912;-77
2021/12/11 08:13:08;;;;;;;;;;;;;;;4.16;100.00;101276.63;5018358;28;19917;-77
2021/12/11 08:15:34;;;;;;;;;;;;;;;4.14;100.00;101276.50;5037420;28;19924;-77
2021/12/11 08:18:00;;;;;;;;;;;;;;;4.19;100.00;101287.25;5035442;28;19917;-77
2021/12/11 08:20:28;;;;;;;;;;;;;;;4.18;100.00;101290.69;5033001;28;19917;-78
2021/12/11 08:22:54;;;;;;;;;;;;;;;4.25;100.00;101294.59;5037652;28;20400;-76
2021/12/11 08:25:21;;;;;;;;;;;;;;;4.31;100.00;101297.63;5034710;28;20011;-76
2021/12/11 08:27:46;;;;;;;;;;;;;;;4.37;100.00;101310.19;5017889;28;19921;-78
2021/12/11 08:30:12;;;;;;;;;;;;;;;4.39;100.00;101301.66;5001765;28;19957;-77
2021/12/11 08:32:37;;;;;;;;;;;;;;;4.40;100.00;101307.81;5027441;28;19923;-77
2021/12/11 08:35:05;;;;;;;;;;;;;;;4.40;100.00;101315.63;5037423;28;20626;-77
2021/12/11 08:37:35;;;;;;;;;;;;;;;4.34;100.00;101325.63;5034410;28;19921;-77
2021/12/11 08:40:01;;;;;;;;;;;;;;;4.28;100.00;101321.78;5053156;28;19927;-77
2021/12/11 08:42:27;;;;;;;;;;;;;;;4.34;100.00;101334.34;5017564;28;19920;-79
2021/12/11 08:44:59;;;;;;;;;;;;;;;4.45;100.00;101333.38;5019282;28;19921;-77
2021/12/11 08:47:26;;;;;;;;;;;;;;;4.58;100.00;101335.09;5018664;28;19920;-78
2021/12/11 08:49:52;;;;;;;;;;;;;;;4.65;100.00;101345.16;5031469;28;19917;-78
2021/12/11 08:52:27;;;;;;;;;;;;;;;4.67;100.00;101346.16;5030904;28;19970;-77
2021/12/11 08:54:52;;;;;;;;;;;;;;;4.65;100.00;101349.47;5036873;28;19927;-79
2021/12/11 08:57:20;;;;;;;;;;;;;;;4.60;100.00;101358.69;5036083;28;19932;-78
2021/12/11 08:59:48;;;;;;;;;;;;;;;4.62;100.00;101364.94;5036900;28;19984;-79
2021/12/11 09:02:16;;;;;;;;;;;;;;;4.67;100.00;101369.63;5034929;28;19923;-79
2021/12/11 09:04:44;;;;;;;;;;;;;;;4.77;100.00;101371.19;5023361;28;20316;-78
2021/12/11 09:07:11;;;;;;;;;;;;;;;4.82;100.00;101381.94;5017807;28;19924;-79
2021/12/11 09:09:40;;;;;;;;;;;;;;;4.87;100.00;101388.34;5036788;28;19917;-79
2021/12/11 09:12:11;;;;;;;;;;;;;;;5.00;100.00;101388.41;5029603;28;20320;-79
2021/12/11 09:14:42;;;;;;;;;;;;;;;5.11;100.00;101393.41;5030307;28;19916;-79
2021/12/11 09:17:17;;;;;;;;;;;;;;;5.23;100.00;101399.44;5036438;28;19989;-79
2021/12/11 09:19:49;;;;;;;;;;;;;;;5.32;100.00;101397.44;5026631;28;20475;-78
2021/12/11 09:22:27;;;;;;;;;;;;;;;5.40;100.00;101406.69;5034648;28;19912;-79
2021/12/11 09:24:57;;;;;;;;;;;;;;;5.49;100.00;101414.22;5034882;28;20015;-79
2021/12/11 09:27:22;;;;;;;;;;;;;;;5.54;100.00;101424.97;5048104;28;19917;-78
2021/12/11 09:29:52;;;;;;;;;;;;;;;5.65;100.00;101428.28;5025822;28;19932;-80
2021/12/11 09:32:24;;;;;;;;;;;;;;;5.66;100.00;101446.69;5014659;28;20393;-79
2021/12/11 09:34:49;;;;;;;;;;;;;;;5.69;100.00;101451.22;5016238;28;20265;-79
2021/12/11 09:37:17;;;;;;;;;;;;;;;5.56;100.00;101455.63;5036506;28;19917;-79
2021/12/11 09:39:46;;;;;;;;;;;;;;;5.48;100.00;101468.97;5024857;28;20296;-80
2021/12/11 09:42:11;;;;;;;;;;;;;;;5.41;100.00;101472.91;5017090;28;20107;-79
2021/12/11 09:44:40;;;;;;;;;;;;;;;5.43;100.00;101491.28;5034940;28;20000;-79
2021/12/11 09:47:23;;;;;;;;;;;;;;;5.38;100.00;101493.59;5016312;28;20243;-80
2021/12/11 09:49:57;;;;;;;;;;;;;;;5.34;100.00;101507.22;5015730;28;19913;-78
2021/12/11 09:52:23;;;;;;;;;;;;;;;5.30;100.00;101513.03;5016805;28;20000;-77
2021/12/11 09:54:55;;;;;;;;;;;;;;;5.29;100.00;101529.53;5018759;28;19921;-75
2021/12/11 09:57:21;;;;;;;;;;;;;;;5.28;100.00;101528.59;5036054;28;20020;-77
2021/12/11 09:59:48;;;;;;;;;;;;;;;5.32;100.00;101548.03;5035853;28;19955;-77
2021/12/11 10:02:23;;;;;;;;;;;;;;;5.33;100.00;101542.91;5036856;28;19928;-80
2021/12/11 10:04:58;;;;;;;;;;;;;;;5.34;100.00;101543.78;5021257;28;19971;-78
2021/12/11 10:07:30;;;;;;;;;;;;;;;5.39;100.00;101547.63;5033342;28;20027;-77
2021/12/11 10:09:59;;;;;;;;;;;;;;;5.47;100.00;101559.50;5015443;28;19923;-77
2021/12/11 10:12:28;;;;;;;;;;;;;;;5.51;100.00;101565.84;5037106;28;19995;-77
2021/12/11 10:14:58;;;;;;;;;;;;;;;5.51;100.00;101571.06;5035021;28;19927;-78
2021/12/11 10:17:36;;;;;;;;;;;;;;;5.49;100.00;101583.13;5035658;28;19924;-78
2021/12/11 10:20:04;;;;;;;;;;;;;;;5.53;100.00;101587.75;5035714;28;19921;-77
2021/12/11 10:22:33;;;;;;;;;;;;;;;5.51;100.00;101597.19;5018669;28;20365;-77
2021/12/11 10:24:59;;;;;;;;;;;;;;;5.53;100.00;101595.56;5035732;28;19927;-78
2021/12/11 10:27:29;;;;;;;;;;;;;;;5.58;100.00;101596.81;5036169;28;19917;-79
2021/12/11 10:29:56;;;;;;;;;;;;;;;5.62;100.00;101600.53;5053437;28;19924;-78
2021/12/11 10:32:26;;;;;;;;;;;;;;;5.67;100.00;101594.84;5036147;28;19917;-79
2021/12/11 10:34:53;;;;;;;;;;;;;;;5.67;100.00;101606.97;5037633;28;19924;-77
2021/12/11 10:37:22;;;;;;;;;;;;;;;5.71;100.00;101602.06;5052459;28;20387;-77
2021/12/11 10:39:51;;;;;;;;;;;;;;;5.72;100.00;101598.66;5035518;28;19922;-78
2021/12/11 10:42:17;;;;;;;;;;;;;;;5.77;100.00;101595.44;5035990;28;19999;-77
2021/12/11 10:44:46;;;;;;;;;;;;;;;5.82;100.00;101599.28;5054223;28;19974;-77
2021/12/11 10:47:22;;;;;;;;;;;;;;;5.92;100.00;101594.75;5036246;28;19944;-77
2021/12/11 10:49:49;;;;;;;;;;;;;;;6.01;100.00;101606.66;5019013;28;19956;-78
2021/12/11 10:52:17;;;;;;;;;;;;;;;6.07;100.00;101604.44;5036053;28;20407;-78
2021/12/11 10:54:44;;;;;;;;;;;;;;;6.11;100.00;101609.97;5053638;28;19920;-77
2021/12/11 10:57:10;;;;;;;;;;;;;;;6.18;100.00;101616.50;5035607;28;19923;-78
2021/12/11 10:59:38;;;;;;;;;;;;;;;6.21;100.00;101614.09;5035747;28;20003;-78
2021/12/11 11:02:14;;;;;;;;;;;;;;;6.31;100.00;101620.88;5035882;28;19926;-78
2021/12/11 11:04:44;;;;;;;;;;;;;;;6.46;100.00;101615.72;5034018;28;19924;-77
2021/12/11 11:07:12;;;;;;;;;;;;;;;6.46;100.00;101627.09;5035883;28;20026;-78
2021/12/11 11:09:38;;;;;;;;;;;;;;;6.45;100.00;101620.03;5035997;28;20511;-78
2021/12/11 11:12:05;;;;;;;;;;;;;;;6.35;100.00;101620.25;5053236;28;19970;-77
2021/12/11 11:14:32;;;;;;;;;;;;;;;6.33;100.00;101619.25;5035795;28;19962;-76
2021/12/11 11:17:00;;;;;;;;;;;;;;;6.36;100.00;101622.06;5036941;28;19927;-78
2021/12/11 11:19:28;;;;;;;;;;;;;;;6.45;100.00;101630.50;5039658;28;19922;-79
2021/12/11 11:21:58;;;;;;;;;;;;;;;6.56;100.00;101625.97;5039187;28;20018;-77
2021/12/11 11:24:26;;;;;;;;;;;;;;;6.56;100.00;101631.22;5039327;28;19920;-79
2021/12/11 11:26:52;;;;;;;;;;;;;;;6.59;100.00;101630.50;5039264;28;19919;-79
2021/12/11 11:29:19;;;;;;;;;;;;;;;6.61;100.00;101636.75;5039524;28;19944;-77
2021/12/11 11:31:47;;;;;;;;;;;;;;;6.63;100.00;101637.72;5039229;28;19925;-78
2021/12/11 11:34:14;;;;;;;;;;;;;;;6.69;100.00;101637.22;5055990;28;19928;-77
2021/12/11 11:36:40;;;;;;;;;;;;;;;6.72;100.00;101640.94;5055258;28;20033;-78
2021/12/11 11:39:10;;;;;;;;;;;;;;;6.67;100.00;101646.72;5054084;28;20267;-78
2021/12/11 11:41:38;;;;;;;;;;;;;;;6.52;100.00;101650.13;5036749;28;19924;-78
2021/12/11 11:44:06;;;;;;;;;;;;;;;6.46;100.00;101663.72;5036424;28;20011;-78
2021/12/11 11:46:32;;;;;;;;;;;;;;;6.52;100.00;101660.59;5035962;28;19955;-80
2021/12/11 11:48:59;;;;;;;;;;;;;;;6.44;100.00;101673.16;5036667;28;20360;-78
2021/12/11 11:51:36;;;;;;;;;;;;;;;6.42;100.00;101669.56;5037162;28;19923;-80
2021/12/11 11:54:03;;;;;;;;;;;;;;;6.55;100.00;101670.38;5035444;28;20241;-79
2021/12/11 11:56:30;;;;;;;;;;;;;;;6.62;100.00;101675.19;5036615;28;19912;-79
2021/12/11 11:58:55;;;;;;;;;;;;;;;6.73;100.00;101676.78;5035936;28;20079;-79
2021/12/11 12:01:23;;;;;;;;;;;;;;;6.74;100.00;101678.63;5036276;28;20003;-78
2021/12/11 12:03:48;;;;;;;;;;;;;;;6.80;100.00;101671.13;5036703;28;19917;-78
2021/12/11 12:06:21;;;;;;;;;;;;;;;6.84;100.00;101672.25;5036247;28;20422;-78
2021/12/11 12:08:46;;;;;;;;;;;;;;;6.87;100.00;101679.38;5036211;28;19921;-79
2021/12/11 12:11:11;;;;;;;;;;;;;;;6.88;100.00;101674.22;5036211;28;19921;-78
2021/12/11 12:13:37;;;;;;;;;;;;;;;6.97;100.00;101672.22;5035750;28;20392;-79
2021/12/11 12:16:05;;;;;;;;;;;;;;;7.17;100.00;101681.31;5054003;28;20037;-79
2021/12/11 12:18:32;;;;;;;;;;;;;;;7.30;100.00;101680.41;5036319;28;20277;-80
2021/12/11 12:20:57;;;;;;;;;;;;;;;7.34;100.00;101692.88;5019296;28;19924;-80
2021/12/11 12:23:23;;;;;;;;;;;;;;;7.33;100.00;101679.66;5036448;28;20277;-80
2021/12/11 12:25:49;;;;;;;;;;;;;;;7.45;100.00;101684.78;5035945;28;19917;-79
2021/12/11 12:28:16;;;;;;;;;;;;;;;7.46;100.00;101697.09;5034599;28;19923;-79
2021/12/11 12:30:53;;;;;;;;;;;;;;;7.36;100.00;101698.19;5036288;28;19917;-79
2021/12/11 12:33:19;;;;;;;;;;;;;;;7.25;100.00;101694.00;5036408;28;19966;-80
2021/12/11 12:35:46;;;;;;;;;;;;;;;7.17;100.00;101690.91;5035008;28;20281;-80
2021/12/11 12:38:13;;;;;;;;;;;;;;;7.12;100.00;101697.59;5036826;28;19924;-81
2021/12/11 12:41:00;;;;;;;;;;;;;;;6.99;100.00;101706.34;5036321;28;20057;-79
2021/12/11 12:46:08;;;;;;;;;;;;;;;6.78;100.00;101706.78;5014514;28;19923;-80
2021/12/11 12:48:34;;;;;;;;;;;;;;;6.77;100.00;101719.78;5012196;28;19917;-80
2021/12/11 12:51:02;;;;;;;;;;;;;;;6.75;100.00;101717.06;5013035;28;20405;-80
2021/12/11 12:53:33;;;;;;;;;;;;;;;6.77;100.00;101715.44;4996730;28;20278;-80
2021/12/11 12:56:04;;;;;;;;;;;;;;;6.88;100.00;101721.38;5012067;28;19917;-81
2021/12/11 12:58:32;;;;;;;;;;;;;;;6.82;100.00;101719.28;5013182;28;19924;-80